createdAt,value
2019-01-29T00:02:09.437Z,1.33
2019-01-29T00:04:41.608Z,1.40
2019-01-29T00:07:13.010Z,1.33
2019-01-29T00:09:44.839Z,1.13
2019-01-29T00:12:16.657Z,1.40
2019-01-29T00:14:48.796Z,1.07
2019-01-29T00:17:20.318Z,0.90
2019-01-29T00:19:51.875Z,1.37
2019-01-29T00:22:23.298Z,1.27
2019-01-29T00:24:54.761Z,1.03
2019-01-29T00:27:26.167Z,1.37
2019-01-29T00:29:57.560Z,1.37
2019-01-29T00:32:28.897Z,1.63
2019-01-29T00:35:00.373Z,1.40
2019-01-29T00:37:31.783Z,1.50
2019-01-29T00:40:03.302Z,1.63
2019-01-29T00:42:35.051Z,1.50
2019-01-29T00:45:08.114Z,1.20
2019-01-29T00:47:39.540Z,1.47
2019-01-29T00:50:11.502Z,1.60
2019-01-29T00:52:43.058Z,1.50
2019-01-29T00:55:15.126Z,1.43
2019-01-29T00:57:47.183Z,1.20
2019-01-29T01:00:20.226Z,1.37
2019-01-29T01:02:51.771Z,1.27
2019-01-29T01:05:23.371Z,0.90
2019-01-29T01:07:54.731Z,1.50
2019-01-29T01:10:26.187Z,1.17
2019-01-29T01:12:57.949Z,1.43
2019-01-29T01:15:29.511Z,1.53
2019-01-29T01:18:00.586Z,1.27
2019-01-29T01:20:32.199Z,1.50
2019-01-29T01:23:03.615Z,1.53
2019-01-29T01:25:35.027Z,1.60
2019-01-29T01:28:06.880Z,1.07
2019-01-29T01:30:38.577Z,2.00
2019-01-29T01:33:09.941Z,1.50
2019-01-29T01:35:41.567Z,1.27
2019-01-29T01:38:13.223Z,1.60
2019-01-29T01:40:44.375Z,2.00
2019-01-29T01:43:15.847Z,1.87
2019-01-29T01:45:47.399Z,1.77
2019-01-29T01:48:18.542Z,1.83
2019-01-29T01:50:50.147Z,1.53
2019-01-29T01:53:21.945Z,1.70
2019-01-29T01:55:54.142Z,1.77
2019-01-29T01:58:25.419Z,2.03
2019-01-29T02:00:56.898Z,1.87
2019-01-29T02:03:28.420Z,1.60
2019-01-29T02:06:00.842Z,1.80
2019-01-29T02:08:32.327Z,2.23
2019-01-29T02:11:03.904Z,1.70
2019-01-29T02:13:35.364Z,1.57
2019-01-29T02:16:06.807Z,1.83
2019-01-29T02:18:38.223Z,1.73
2019-01-29T02:21:09.675Z,1.60
2019-01-29T02:23:40.794Z,1.40
2019-01-29T02:26:12.295Z,1.27
2019-01-29T02:28:43.714Z,1.30
2019-01-29T02:31:14.870Z,1.47
2019-01-29T02:33:46.250Z,1.73
2019-01-29T02:36:17.617Z,1.67
2019-01-29T02:38:48.959Z,1.70
2019-01-29T02:41:20.417Z,1.67
2019-01-29T02:43:51.775Z,1.80
2019-01-29T02:46:23.298Z,1.77
2019-01-29T02:48:54.685Z,1.60
2019-01-29T02:51:26.845Z,1.73
2019-01-29T02:53:58.306Z,1.50
2019-01-29T02:56:29.947Z,1.90
2019-01-29T02:59:00.947Z,1.70
2019-01-29T03:01:32.052Z,1.73
2019-01-29T03:04:03.436Z,1.37
2019-01-29T03:06:35.437Z,2.00
2019-01-29T03:09:09.235Z,1.53
2019-01-29T03:11:40.728Z,1.50
2019-01-29T03:14:12.111Z,2.10
2019-01-29T03:16:43.539Z,1.80
2019-01-29T03:19:15.014Z,1.50
2019-01-29T03:21:46.760Z,1.87
2019-01-29T03:24:17.972Z,1.93
2019-01-29T03:26:49.611Z,2.20
2019-01-29T03:29:20.939Z,1.77
2019-01-29T03:31:52.095Z,2.00
2019-01-29T03:34:23.380Z,2.30
2019-01-29T03:36:54.642Z,1.50
2019-01-29T03:39:25.807Z,1.67
2019-01-29T03:41:57.115Z,1.60
2019-01-29T03:44:28.551Z,1.70
2019-01-29T03:47:00.001Z,1.53
2019-01-29T03:49:31.158Z,1.80
2019-01-29T03:52:02.379Z,1.70
2019-01-29T03:54:34.459Z,1.73
2019-01-29T03:57:05.952Z,1.80
2019-01-29T03:59:37.019Z,1.70
2019-01-29T04:02:08.418Z,1.80
2019-01-29T04:04:39.790Z,2.00
2019-01-29T04:07:11.229Z,1.63
2019-01-29T04:09:42.906Z,1.90
2019-01-29T04:12:14.261Z,2.03
2019-01-29T04:14:45.732Z,1.90
2019-01-29T04:17:17.931Z,1.90
2019-01-29T04:19:49.074Z,2.00
2019-01-29T04:22:20.471Z,1.93
2019-01-29T04:24:51.830Z,1.90
2019-01-29T04:27:22.995Z,1.50
2019-01-29T04:29:54.340Z,2.07
2019-01-29T04:32:25.723Z,2.27
2019-01-29T04:34:57.099Z,2.00
2019-01-29T04:37:28.543Z,1.83
2019-01-29T04:40:00.460Z,2.40
2019-01-29T04:42:32.096Z,1.70
2019-01-29T04:45:04.096Z,2.40
2019-01-29T04:47:35.540Z,1.70
2019-01-29T04:50:07.804Z,1.90
2019-01-29T04:52:39.275Z,2.40
2019-01-29T04:55:11.554Z,2.40
2019-01-29T04:57:43.674Z,2.03
2019-01-29T05:00:17.572Z,2.10
2019-01-29T05:02:48.767Z,2.00
2019-01-29T05:05:20.596Z,1.80
2019-01-29T05:07:52.421Z,1.67
2019-01-29T05:10:24.611Z,1.70
2019-01-29T05:12:56.063Z,2.43
2019-01-29T05:15:27.474Z,2.00
2019-01-29T05:17:58.846Z,2.10
2019-01-29T05:20:30.203Z,2.13
2019-01-29T05:23:01.923Z,2.63
2019-01-29T05:25:33.018Z,1.90
2019-01-29T05:28:04.528Z,2.13
2019-01-29T05:30:35.750Z,2.20
2019-01-29T05:33:07.081Z,2.30
2019-01-29T05:35:38.173Z,2.93
2019-01-29T05:38:09.459Z,2.50
2019-01-29T05:40:40.875Z,2.30
2019-01-29T05:43:12.668Z,2.23
2019-01-29T05:45:43.971Z,2.63
2019-01-29T05:48:15.944Z,2.90
2019-01-29T05:50:47.294Z,2.27
2019-01-29T05:53:18.779Z,2.50
2019-01-29T05:55:50.499Z,2.47
2019-01-29T05:58:21.951Z,2.30
2019-01-29T06:00:53.122Z,2.30
2019-01-29T06:03:24.421Z,2.47
2019-01-29T06:05:55.704Z,2.23
2019-01-29T06:08:27.318Z,2.50
2019-01-29T06:11:00.075Z,2.40
2019-01-29T06:13:31.650Z,2.30
2019-01-29T06:16:03.149Z,2.57
2019-01-29T06:18:34.850Z,2.70
2019-01-29T06:21:06.143Z,2.60
2019-01-29T06:23:41.283Z,3.43
2019-01-29T06:26:12.780Z,3.60
2019-01-29T06:28:44.235Z,3.43
2019-01-29T06:31:15.734Z,3.20
2019-01-29T06:33:47.269Z,3.73
2019-01-29T06:36:18.679Z,4.33
2019-01-29T06:38:49.917Z,4.23
2019-01-29T06:41:20.942Z,3.77
2019-01-29T06:43:52.165Z,4.10
2019-01-29T06:46:23.117Z,4.80
2019-01-29T06:48:54.410Z,4.40
2019-01-29T06:51:25.926Z,4.93
2019-01-29T06:53:57.414Z,4.90
2019-01-29T06:56:30.117Z,4.90
2019-01-29T06:59:02.737Z,6.70
2019-01-29T07:01:34.686Z,7.07
2019-01-29T07:04:06.025Z,5.90
2019-01-29T07:06:37.499Z,5.70
2019-01-29T07:09:09.963Z,6.00
2019-01-29T07:11:41.334Z,6.57
2019-01-29T07:14:12.474Z,6.47
2019-01-29T07:17:02.775Z,6.00
2019-01-29T07:19:36.935Z,5.50
2019-01-29T07:22:08.186Z,6.63
2019-01-29T07:24:42.971Z,7.50
2019-01-29T07:27:13.271Z,7.17
2019-01-29T07:29:44.554Z,7.83
2019-01-29T07:32:17.068Z,7.10
2019-01-29T07:34:48.178Z,9.70
2019-01-29T07:37:22.089Z,11.53
2019-01-29T07:39:52.499Z,9.33
2019-01-29T07:42:23.767Z,7.77
2019-01-29T07:44:55.082Z,7.07
2019-01-29T07:47:27.539Z,8.07
2019-01-29T07:49:58.500Z,7.97
2019-01-29T07:52:30.038Z,6.30
2019-01-29T07:55:02.270Z,7.07
2019-01-29T07:57:34.046Z,6.70
2019-01-29T08:00:06.030Z,7.83
2019-01-29T08:02:41.046Z,6.70
2019-01-29T08:05:12.443Z,7.43
2019-01-29T08:07:43.747Z,7.07
2019-01-29T08:10:15.158Z,6.37
2019-01-29T08:12:47.531Z,6.13
2019-01-29T08:15:19.099Z,6.13
2019-01-29T08:17:50.462Z,5.67
2019-01-29T08:20:22.323Z,7.65
2019-01-29T08:22:53.658Z,5.60
2019-01-29T08:25:25.306Z,7.00
2019-01-29T08:27:56.770Z,6.20
2019-01-29T08:30:27.833Z,6.33
2019-01-29T08:32:59.479Z,5.70
2019-01-29T08:35:30.972Z,6.17
2019-01-29T08:38:02.255Z,5.67
2019-01-29T08:40:33.581Z,6.20
2019-01-29T08:43:04.715Z,6.20
2019-01-29T08:45:36.430Z,6.00
2019-01-29T08:48:07.826Z,6.07
2019-01-29T08:50:39.250Z,6.60
2019-01-29T08:53:11.114Z,5.50
2019-01-29T08:55:42.104Z,6.47
2019-01-29T08:58:13.678Z,5.47
2019-01-29T09:00:45.452Z,5.80
2019-01-29T09:03:17.475Z,5.67
2019-01-29T09:05:49.165Z,5.73
2019-01-29T09:08:20.531Z,6.10
2019-01-29T09:10:51.789Z,5.43
2019-01-29T09:13:23.523Z,6.93
2019-01-29T09:15:54.991Z,6.27
2019-01-29T09:18:26.200Z,7.43
2019-01-29T09:20:57.656Z,6.20
2019-01-29T09:23:28.706Z,6.50
2019-01-29T09:26:01.756Z,5.77
2019-01-29T09:28:32.982Z,6.27
2019-01-29T09:31:04.678Z,6.17
2019-01-29T09:33:35.733Z,6.13
2019-01-29T09:36:07.083Z,7.63
2019-01-29T09:38:38.656Z,6.53
2019-01-29T09:41:10.119Z,5.83
2019-01-29T09:43:41.374Z,6.20
2019-01-29T09:46:12.738Z,6.83
2019-01-29T09:48:44.142Z,6.93
2019-01-29T09:51:15.426Z,6.57
2019-01-29T09:53:46.794Z,7.67
2019-01-29T09:56:18.085Z,8.07
2019-01-29T09:58:50.181Z,8.37
2019-01-29T10:01:21.327Z,7.67
2019-01-29T10:03:52.368Z,8.60
2019-01-29T10:06:23.776Z,8.30
2019-01-29T10:08:55.027Z,8.07
2019-01-29T10:11:26.367Z,8.03
2019-01-29T10:13:57.890Z,9.03
2019-01-29T10:16:30.331Z,9.30
2019-01-29T10:19:01.654Z,9.57
2019-01-29T10:21:33.426Z,7.97
2019-01-29T10:24:05.160Z,8.30
2019-01-29T10:26:36.701Z,8.70
2019-01-29T10:29:08.056Z,7.43
2019-01-29T10:31:39.419Z,6.73
2019-01-29T10:34:10.748Z,7.77
2019-01-29T10:36:42.186Z,7.03
2019-01-29T10:39:13.310Z,6.17
2019-01-29T10:41:44.527Z,6.37
2019-01-29T10:44:16.722Z,6.70
2019-01-29T10:46:47.948Z,6.17
2019-01-29T10:49:19.444Z,7.07
2019-01-29T10:51:50.667Z,6.50
2019-01-29T10:54:21.975Z,5.53
2019-01-29T10:56:53.343Z,5.60
2019-01-29T10:59:24.538Z,5.80
2019-01-29T11:01:55.743Z,5.83
2019-01-29T11:04:27.215Z,5.80
2019-01-29T11:06:58.515Z,5.70
2019-01-29T11:09:30.055Z,5.20
2019-01-29T11:12:01.102Z,5.67
2019-01-29T11:14:32.156Z,5.20
2019-01-29T11:17:03.466Z,4.80
2019-01-29T11:19:34.786Z,5.13
2019-01-29T11:22:06.066Z,5.47
2019-01-29T11:24:37.458Z,5.57
2019-01-29T11:27:08.974Z,5.40
2019-01-29T11:29:40.246Z,5.20
2019-01-29T11:32:11.518Z,5.00
2019-01-29T11:34:42.983Z,4.20
2019-01-29T11:37:14.041Z,4.37
2019-01-29T11:39:45.374Z,4.40
2019-01-29T11:42:16.662Z,4.50
2019-01-29T11:44:48.045Z,5.00
2019-01-29T11:47:19.258Z,3.53
2019-01-29T11:49:50.450Z,4.00
2019-01-29T11:52:21.756Z,3.87
2019-01-29T11:54:52.978Z,4.20
2019-01-29T11:57:23.940Z,4.53
2019-01-29T11:59:55.142Z,4.20
2019-01-29T12:02:28.379Z,3.70
2019-01-29T12:04:58.902Z,4.00
2019-01-29T12:07:30.255Z,4.40
2019-01-29T12:10:01.520Z,3.80
2019-01-29T12:12:32.715Z,4.17
2019-01-29T12:15:04.893Z,3.67
2019-01-29T12:17:36.106Z,4.60
2019-01-29T12:20:07.779Z,3.60
2019-01-29T12:22:38.914Z,3.70
2019-01-29T12:25:10.535Z,4.13
2019-01-29T12:27:41.631Z,3.70
2019-01-29T12:30:16.214Z,4.07
2019-01-29T12:32:47.579Z,3.93
2019-01-29T12:35:18.719Z,3.57
2019-01-29T12:37:50.090Z,4.30
2019-01-29T12:40:21.173Z,4.00
2019-01-29T12:42:52.543Z,3.60
2019-01-29T12:45:24.247Z,4.67
2019-01-29T12:47:55.814Z,4.07
2019-01-29T12:50:27.338Z,11.13
2019-01-29T12:53:13.684Z,5.90
2019-01-29T12:55:44.959Z,6.37
2019-01-29T12:58:16.342Z,4.77
2019-01-29T13:00:56.178Z,4.93
2019-01-29T13:03:27.635Z,4.50
2019-01-29T13:05:58.823Z,3.40
2019-01-29T13:08:30.332Z,4.23
2019-01-29T13:11:01.675Z,4.30
2019-01-29T13:13:33.030Z,4.37
2019-01-29T13:16:04.490Z,4.67
2019-01-29T13:18:35.926Z,3.93
2019-01-29T13:21:07.278Z,3.60
2019-01-29T13:23:38.691Z,3.93
2019-01-29T13:26:09.794Z,4.20
2019-01-29T13:28:41.335Z,3.93
2019-01-29T13:31:12.651Z,3.23
2019-01-29T13:33:43.878Z,3.63
2019-01-29T13:36:15.154Z,3.37
2019-01-29T13:38:46.551Z,3.80
2019-01-29T13:41:17.909Z,3.70
2019-01-29T13:43:49.263Z,2.87
2019-01-29T13:46:20.709Z,3.57
2019-01-29T13:48:51.910Z,3.80
2019-01-29T13:51:23.450Z,4.03
2019-01-29T13:53:54.646Z,4.10
2019-01-29T13:56:25.986Z,3.30
2019-01-29T13:58:57.290Z,3.80
2019-01-29T14:01:28.507Z,3.97
2019-01-29T14:04:05.941Z,3.20
2019-01-29T14:06:33.880Z,4.17
2019-01-29T14:09:08.317Z,3.80
2019-01-29T14:11:39.713Z,4.20
2019-01-29T14:14:10.923Z,4.70
2019-01-29T14:16:42.195Z,4.27
2019-01-29T14:19:14.759Z,3.93
2019-01-29T14:21:46.360Z,4.40
2019-01-29T14:24:17.507Z,5.10
2019-01-29T14:26:48.728Z,6.10
2019-01-29T14:29:19.974Z,4.30
2019-01-29T14:31:52.241Z,4.23
2019-01-29T14:34:23.547Z,3.95
2019-01-29T14:36:54.597Z,5.43
2019-01-29T14:40:08.424Z,6.00
2019-01-29T14:42:39.658Z,4.20
2019-01-29T14:45:15.976Z,4.50
2019-01-29T14:47:47.241Z,3.50
2019-01-29T14:50:19.146Z,3.70
2019-01-29T14:52:51.713Z,3.63
2019-01-29T14:55:23.078Z,4.23
2019-01-29T14:57:54.444Z,4.07
2019-01-29T15:00:26.306Z,4.10
2019-01-29T15:02:57.696Z,5.27
2019-01-29T15:05:29.130Z,4.00
2019-01-29T15:08:00.534Z,4.50
2019-01-29T15:10:31.891Z,7.33
2019-01-29T15:13:03.167Z,6.57
2019-01-29T15:15:36.955Z,4.43
2019-01-29T15:18:18.246Z,4.37
2019-01-29T15:20:49.614Z,3.83
2019-01-29T15:23:20.962Z,3.87
2019-01-29T15:25:52.441Z,5.27
2019-01-29T15:28:23.646Z,5.20
2019-01-29T15:30:54.681Z,4.17
2019-01-29T15:33:27.162Z,4.97
2019-01-29T15:35:58.122Z,3.80
2019-01-29T15:38:29.085Z,4.90
2019-01-29T15:41:00.998Z,4.47
2019-01-29T15:43:32.283Z,4.10
2019-01-29T15:46:03.256Z,3.97
2019-01-29T15:48:34.288Z,4.60
2019-01-29T15:51:08.686Z,8.07
2019-01-29T15:53:40.066Z,7.20
2019-01-29T15:56:11.150Z,7.50
2019-01-29T15:58:44.694Z,6.07
2019-01-29T16:01:17.416Z,5.30
2019-01-29T16:03:48.783Z,5.97
2019-01-29T16:06:20.026Z,4.43
2019-01-29T16:08:51.319Z,5.30
2019-01-29T16:11:22.554Z,3.97
2019-01-29T16:13:53.826Z,4.50
2019-01-29T16:16:25.151Z,3.97
2019-01-29T16:18:56.359Z,4.23
2019-01-29T16:21:27.936Z,4.47
2019-01-29T16:24:00.022Z,4.37
2019-01-29T16:26:31.118Z,4.27
2019-01-29T16:29:02.183Z,4.33
2019-01-29T16:31:33.399Z,4.50
2019-01-29T16:34:05.338Z,4.33
2019-01-29T16:36:36.694Z,4.50
2019-01-29T16:39:09.748Z,4.60
2019-01-29T16:41:41.234Z,4.60
2019-01-29T16:44:12.494Z,4.23
2019-01-29T16:46:44.403Z,4.97
2019-01-29T16:49:15.591Z,6.03
2019-01-29T16:51:46.625Z,6.27
2019-01-29T16:54:17.818Z,5.37
2019-01-29T16:56:49.031Z,3.70
2019-01-29T16:59:23.270Z,4.10
2019-01-29T17:01:54.581Z,4.40
2019-01-29T17:04:25.543Z,3.47
2019-01-29T17:06:56.749Z,4.07
2019-01-29T17:09:27.695Z,5.00
2019-01-29T17:11:58.908Z,4.73
2019-01-29T17:14:30.411Z,4.23
2019-01-29T17:17:01.614Z,4.53
2019-01-29T17:19:32.930Z,5.07
2019-01-29T17:22:05.659Z,4.40
2019-01-29T17:24:36.843Z,4.07
2019-01-29T17:27:07.842Z,4.03
2019-01-29T17:29:38.790Z,4.30
2019-01-29T17:32:10.147Z,3.93
2019-01-29T17:34:41.422Z,4.17
2019-01-29T17:37:12.470Z,3.70
2019-01-29T17:39:43.437Z,4.20
2019-01-29T17:42:15.049Z,3.90
2019-01-29T17:44:46.002Z,4.13
2019-01-29T17:47:17.207Z,4.37
2019-01-29T17:49:48.390Z,4.60
2019-01-29T17:52:19.786Z,5.17
2019-01-29T17:54:51.334Z,4.47
2019-01-29T17:57:22.570Z,4.60
2019-01-29T17:59:53.786Z,4.97
2019-01-29T18:02:25.023Z,4.23
2019-01-29T18:04:56.249Z,4.47
2019-01-29T18:07:27.470Z,8.77
2019-01-29T18:09:58.438Z,6.27
2019-01-29T18:12:29.691Z,5.83
2019-01-29T18:15:01.442Z,5.20
2019-01-29T18:17:32.738Z,7.73
2019-01-29T18:20:06.122Z,5.90
2019-01-29T18:22:37.406Z,6.63
2019-01-29T18:25:09.714Z,7.17
2019-01-29T18:27:42.842Z,6.90
2019-01-29T18:30:16.782Z,7.33
2019-01-29T18:32:48.781Z,7.97
2019-01-29T18:35:20.562Z,10.07
2019-01-29T18:37:52.687Z,13.73
2019-01-29T18:40:32.480Z,9.70
2019-01-29T18:43:04.130Z,14.43
2019-01-29T18:45:35.241Z,15.30
2019-01-29T18:48:06.743Z,9.63
2019-01-29T18:50:38.062Z,5.70
2019-01-29T18:53:09.346Z,6.70
2019-01-29T18:55:40.311Z,6.80
2019-01-29T18:58:12.684Z,7.63
2019-01-29T19:00:54.005Z,23.43
2019-01-29T19:03:17.855Z,12.10
2019-01-29T19:05:49.162Z,8.33
2019-01-29T19:08:20.164Z,8.40
2019-01-29T19:10:51.439Z,27.23
2019-01-29T19:13:22.482Z,23.43
2019-01-29T19:15:53.862Z,21.53
2019-01-29T19:18:25.332Z,15.13
2019-01-29T19:20:56.539Z,9.20
2019-01-29T19:23:27.841Z,11.40
2019-01-29T19:25:59.503Z,10.47
2019-01-29T19:28:31.058Z,6.37
2019-01-29T19:31:04.749Z,6.17
2019-01-29T19:33:35.113Z,8.57
2019-01-29T19:36:06.665Z,7.93
2019-01-29T19:38:38.062Z,6.70
2019-01-29T19:41:09.631Z,7.93
2019-01-29T19:43:40.611Z,5.83
2019-01-29T19:46:11.667Z,6.60
2019-01-29T19:48:42.690Z,5.90
2019-01-29T19:51:13.742Z,5.37
2019-01-29T19:53:45.090Z,5.77
2019-01-29T19:56:16.383Z,5.57
2019-01-29T19:58:47.645Z,5.23
2019-01-29T20:01:18.823Z,5.63
2019-01-29T20:03:50.342Z,5.43
2019-01-29T20:06:21.367Z,5.20
2019-01-29T20:08:52.667Z,5.13
2019-01-29T20:11:26.320Z,6.30
2019-01-29T20:13:57.648Z,6.03
2019-01-29T20:16:29.908Z,5.40
2019-01-29T20:19:02.993Z,6.50
2019-01-29T20:21:38.889Z,5.50
2019-01-29T20:24:10.002Z,4.63
2019-01-29T20:26:41.459Z,5.03
2019-01-29T20:29:12.483Z,5.80
2019-01-29T20:31:43.750Z,5.37
2019-01-29T20:34:15.106Z,5.17
2019-01-29T20:36:46.316Z,5.23
2019-01-29T20:39:17.712Z,4.50
2019-01-29T20:41:51.675Z,5.40
2019-01-29T20:44:22.109Z,6.03
2019-01-29T20:46:53.543Z,5.80
2019-01-29T20:49:25.066Z,5.03
2019-01-29T20:51:56.145Z,5.43
2019-01-29T20:54:27.690Z,5.17
2019-01-29T20:56:58.646Z,5.20
2019-01-29T20:59:30.123Z,4.80
2019-01-29T21:02:01.057Z,5.23
2019-01-29T21:04:32.045Z,5.33
2019-01-29T21:07:12.954Z,5.07
2019-01-29T21:09:44.180Z,4.73
2019-01-29T21:12:15.751Z,5.00
2019-01-29T21:14:47.261Z,8.73
2019-01-29T21:17:18.594Z,7.13
2019-01-29T21:19:49.886Z,12.70
2019-01-29T21:22:22.058Z,11.17
2019-01-29T21:24:53.258Z,9.10
2019-01-29T21:27:24.471Z,6.80
2019-01-29T21:29:56.136Z,5.03
2019-01-29T21:32:27.082Z,5.03
2019-01-29T21:34:58.623Z,4.70
2019-01-29T21:37:29.638Z,4.80
2019-01-29T21:40:01.895Z,4.90
2019-01-29T21:42:33.001Z,5.23
2019-01-29T21:45:05.573Z,6.90
2019-01-29T21:47:37.006Z,6.67
2019-01-29T21:50:12.463Z,7.00
2019-01-29T21:52:44.542Z,7.60
2019-01-29T21:55:15.970Z,6.87
2019-01-29T21:57:47.062Z,5.90
2019-01-29T22:00:38.510Z,7.43
2019-01-29T22:03:10.252Z,6.83
2019-01-29T22:05:41.789Z,7.07
2019-01-29T22:08:13.151Z,6.80
2019-01-29T22:10:44.516Z,7.07
2019-01-29T22:13:15.547Z,7.00
2019-01-29T22:15:46.682Z,6.10
2019-01-29T22:18:18.414Z,7.53
2019-01-29T22:20:49.702Z,7.40
2019-01-29T22:23:20.982Z,17.33
2019-01-29T22:25:51.965Z,23.23
2019-01-29T22:28:23.258Z,12.70
2019-01-29T22:30:54.530Z,12.30
2019-01-29T22:33:25.819Z,8.87
2019-01-29T22:35:57.026Z,6.70
2019-01-29T22:38:28.050Z,5.90
2019-01-29T22:40:59.277Z,6.17
2019-01-29T22:43:30.466Z,9.80
2019-01-29T22:46:01.835Z,8.50
2019-01-29T22:48:32.784Z,18.07
2019-01-29T22:51:03.835Z,12.70
2019-01-29T22:53:35.042Z,12.30
2019-01-29T22:56:06.887Z,14.80
2019-01-29T22:58:38.166Z,8.07
2019-01-29T23:01:30.452Z,7.23
2019-01-29T23:04:21.691Z,6.37
2019-01-29T23:07:16.366Z,6.70
2019-01-29T23:09:47.663Z,6.93
2019-01-29T23:12:18.986Z,8.93
2019-01-29T23:14:50.210Z,7.90
2019-01-29T23:17:21.242Z,8.00
2019-01-29T23:19:52.522Z,7.23
2019-01-29T23:22:23.810Z,7.33
2019-01-29T23:24:55.265Z,7.07
2019-01-29T23:27:27.486Z,8.33
2019-01-29T23:29:59.030Z,8.07
2019-01-29T23:32:30.022Z,19.03
2019-01-29T23:35:01.223Z,17.37
2019-01-29T23:37:32.218Z,7.90
2019-01-29T23:40:04.621Z,10.87
2019-01-29T23:42:35.846Z,10.93
2019-01-29T23:45:08.581Z,8.03
2019-01-29T23:47:39.841Z,6.97
2019-01-29T23:50:12.438Z,7.50
2019-01-29T23:52:43.505Z,7.30
2019-01-29T23:55:14.849Z,7.40
2019-01-29T23:57:45.906Z,7.20
